KFHRPAKT

Guest
Details From KFHR - Friday Harbor
To PAKT - Ketchikan Intl
Flight Number -
Tags Generated
Created
Modified
Stats Distance 521 nm / 965 km
Max Altitude 0 ft / 0 m
Waypoints 3
Social Downloads 0
Likes 0
Share VATSIM

Download

Looking for another format? Having issues loading an existing format? Contact us
Advertisement - Login to hide

Notes

Generated

Route

KFHR GRANA PAKT

ID Type Via Altitude Latitude Longitude Leg Dist Tot Dist Heading (true) Name
O KFHR APT - 0 ft / 0 m 48.52662˚ -123.02473˚ - 0 nm - -
GRANA FIX - 0 ft / 0 m 55.34823˚ -131.70116˚ 519 nm 519 nm 325° / 318° -
O PAKT APT - 0 ft / 0 m 55.36288˚ -131.72634˚ 1 nm 521 nm 316° / 316° -

Altitude Profile

Advertisement - Login to hide

Weather


0- 5 10 15 20 25 30 35+ Temperature / ° C

Clouds and Precipitation
Forecast for 2017-12-17 06:00 UTC. Updated an hour ago

Ground ~20,000 ft ~40,000 ft Winds

KFHR

Details ICAO KFHR (FRD)
Name FRIDAY HARBOR
Region United States
Timezone America/Los_Angeles (UTC-8.0)
Stats Elevation 113 ft / 34 m (AMSL)
Location 48.521966° -123.024368°
Runways 1
Magnetic Variation 16.071° E

METAR

KFHR 170553Z AUTO 14010KT 8SM -RA BKN007 OVC046 06/04 A3023 RMK AO2 RAE21B43 SLP235 P0001 60003 T00560044 10067 20056 56015 $

Decode

TAF

Not found

Departure Runways

ID Width Length Bearing (true) Bearing (mag) Surface Threshold Offset Overrun Length
16 75 ft / 23 m 3,402 ft / 1,037 m 177.06° 160.99° Asphalt 0 ft / 0 m 0 ft / 0 m
34 75 ft / 23 m 3,402 ft / 1,037 m 357.06° 340.99° Asphalt 0 ft / 0 m 0 ft / 0 m

PAKT

Details ICAO PAKT (KTN)
Name KETCHIKAN INTL
Region USA (Alaska)
Timezone Unknown (UTC+0.0)
Stats Elevation 88 ft / 27 m (AMSL)
Location 55.355545° -131.713737°
Runways 1
Magnetic Variation 18.532° E

METAR

PAKT 170553Z VRB06KT 10SM -RA SCT024 BKN031 OVC090 06/04 A2973

Decode

TAF

TAF PAKT 170523Z 1706/1806 VRB04KT P6SM -SHRA SCT025 OVC035 WS020/27025KT FM171200 15006KT P6SM VCSH BKN040 FM172000 15007KT 5SM -SHRA SCT015 OVC025 FM180300 13007KT 6SM -SHRA SCT025 OVC035 AMD LTD TO CLD VIS AND WIND 1706/1715

Decode

Destination Runways

ID Width Length Bearing (true) Bearing (mag) Surface Threshold Offset Overrun Length
11 150 ft / 46 m 7,485 ft / 2,281 m 135.66° 117.13° Asphalt 0 ft / 0 m 200 ft / 61 m
29 150 ft / 46 m 7,485 ft / 2,281 m 315.68° 297.15° Asphalt 0 ft / 0 m 100 ft / 30 m

Approach Navaids

Runway Type Ident Frequency Range Bearing (true) Bearing (mag) Slope Elevation
11 Localiser IECH 109.30 MHz 18 nm / 33 km 135.69° 117.16° - 66 ft / 20 m (AMSL)
11 Glidescope IECH 109.30 MHz 10 nm / 19 km 135.67° 117.14° 3.61° 76 ft / 23 m (AMSL)
11 DME IECH 109.30 MHz 18 nm / 33 km - - - 98 ft / 30 m (AMSL)